sensor_id;sensor_type;location;lat;lon;timestamp;pressure;altitude;pressure_sealevel;temperature;humidity
44734;BME280;30462;52.446;-1.930;2023-07-13T00:00:18;99972.24609;;;;
44734;BME280;30462;52.446;-1.930;2023-07-13T00:01:18;99968.23047;;;;
44734;BME280;30462;52.446;-1.930;2023-07-13T00:02:17;99970.54688;;;;
44734;BME280;30462;52.446;-1.930;2023-07-13T00:03:18;99972.96484;;;;
44734;BME280;30462;52.446;-1.930;2023-07-13T00:04:19;99966.125;;;;
44734;BME280;30462;52.446;-1.930;2023-07-13T00:05:17;99969.1875;;;;
44734;BME280;30462;52.446;-1.930;2023-07-13T00:06:18;99969.86719;;;;
44734;BME280;30462;52.446;-1.930;2023-07-13T00:07:18;99969.05859;;;;
44734;BME280;30462;52.446;-1.930;2023-07-13T00:08:18;99968.70313;;;;
44734;BME280;30462;52.446;-1.930;2023-07-13T00:09:18;99969.75391;;;;
44734;BME280;30462;52.446;-1.930;2023-07-13T00:10:18;99968.05078;;;;
44734;BME280;30462;52.446;-1.930;2023-07-13T00:11:18;99971.05078;;;;
44734;BME280;30462;52.446;-1.930;2023-07-13T00:13:18;99971.52734;;;;
44734;BME280;30462;52.446;-1.930;2023-07-13T00:14:18;99969.59375;;;;
44734;BME280;30462;52.446;-1.930;2023-07-13T00:15:19;99965.71484;;;;
44734;BME280;30462;52.446;-1.930;2023-07-13T00:16:18;99965.80469;;;;
44734;BME280;30462;52.446;-1.930;2023-07-13T00:17:17;99964.15234;;;;
44734;BME280;30462;52.446;-1.930;2023-07-13T00:18:18;99964.19531;;;;
44734;BME280;30462;52.446;-1.930;2023-07-13T00:19:18;99962.40234;;;;
44734;BME280;30462;52.446;-1.930;2023-07-13T00:20:17;99965.97656;;;;
44734;BME280;30462;52.446;-1.930;2023-07-13T00:21:18;99964.26172;;;;
44734;BME280;30462;52.446;-1.930;2023-07-13T00:22:17;99965.34766;;;;
44734;BME280;30462;52.446;-1.930;2023-07-13T00:23:17;99967.07031;;;;
44734;BME280;30462;52.446;-1.930;2023-07-13T00:24:18;99965.6875;;;;
44734;BME280;30462;52.446;-1.930;2023-07-13T00:25:18;99963.09375;;;;
44734;BME280;30462;52.446;-1.930;2023-07-13T00:26:18;99967.38672;;;;
44734;BME280;30462;52.446;-1.930;2023-07-13T00:27:18;99970.90234;;;;
44734;BME280;30462;52.446;-1.930;2023-07-13T00:28:18;99967.53125;;;;
44734;BME280;30462;52.446;-1.930;2023-07-13T00:29:18;99970.9375;;;;
44734;BME280;30462;52.446;-1.930;2023-07-13T00:30:18;99972.20313;;;;
44734;BME280;30462;52.446;-1.930;2023-07-13T00:31:17;99976.67578;;;;
44734;BME280;30462;52.446;-1.930;2023-07-13T00:32:18;99975.37891;;;;
44734;BME280;30462;52.446;-1.930;2023-07-13T00:33:18;99971.28906;;;;
44734;BME280;30462;52.446;-1.930;2023-07-13T00:34:18;99977.50781;;;;
44734;BME280;30462;52.446;-1.930;2023-07-13T00:35:18;99972.83203;;;;
44734;BME280;30462;52.446;-1.930;2023-07-13T00:36:19;99975.55469;;;;
44734;BME280;30462;52.446;-1.930;2023-07-13T00:37:18;99977.79297;;;;
44734;BME280;30462;52.446;-1.930;2023-07-13T00:38:17;99974.65625;;;;
44734;BME280;30462;52.446;-1.930;2023-07-13T00:39:18;99976.41016;;;;
44734;BME280;30462;52.446;-1.930;2023-07-13T00:40:18;99979.5;;;;
44734;BME280;30462;52.446;-1.930;2023-07-13T00:41:18;99977.29688;;;;
44734;BME280;30462;52.446;-1.930;2023-07-13T00:42:18;99980.60547;;;;
44734;BME280;30462;52.446;-1.930;2023-07-13T00:43:20;99977.60938;;;;
44734;BME280;30462;52.446;-1.930;2023-07-13T00:44:20;99977.32422;;;;
44734;BME280;30462;52.446;-1.930;2023-07-13T00:46:20;99976.72266;;;;
44734;BME280;30462;52.446;-1.930;2023-07-13T00:47:17;99977.30859;;;;
44734;BME280;30462;52.446;-1.930;2023-07-13T00:48:18;99975.97266;;;;
44734;BME280;30462;52.446;-1.930;2023-07-13T00:49:19;99974.60938;;;;
44734;BME280;30462;52.446;-1.930;2023-07-13T00:50:18;99974.20703;;;;
44734;BME280;30462;52.446;-1.930;2023-07-13T00:51:19;99976.55469;;;;
44734;BME280;30462;52.446;-1.930;2023-07-13T00:52:18;99975.58594;;;;
44734;BME280;30462;52.446;-1.930;2023-07-13T00:53:18;99973.22266;;;;
44734;BME280;30462;52.446;-1.930;2023-07-13T00:54:19;99977.10547;;;;
44734;BME280;30462;52.446;-1.930;2023-07-13T00:55:18;99972.63281;;;;
44734;BME280;30462;52.446;-1.930;2023-07-13T00:56:18;99971.16406;;;;
44734;BME280;30462;52.446;-1.930;2023-07-13T00:57:18;99971.47656;;;;
44734;BME280;30462;52.446;-1.930;2023-07-13T00:58:19;99974.37891;;;;
44734;BME280;30462;52.446;-1.930;2023-07-13T00:59:18;99975.13281;;;;
44734;BME280;30462;52.446;-1.930;2023-07-13T01:00:18;99973.45313;;;;
44734;BME280;30462;52.446;-1.930;2023-07-13T01:01:18;99973.01563;;;;
44734;BME280;30462;52.446;-1.930;2023-07-13T01:02:18;99975.69922;;;;
44734;BME280;30462;52.446;-1.930;2023-07-13T01:03:18;99971.34375;;;;
44734;BME280;30462;52.446;-1.930;2023-07-13T01:04:17;99970.36328;;;;
44734;BME280;30462;52.446;-1.930;2023-07-13T01:05:19;99972.45313;;;;
44734;BME280;30462;52.446;-1.930;2023-07-13T01:06:18;99973.85156;;;;
44734;BME280;30462;52.446;-1.930;2023-07-13T01:07:18;99970.61328;;;;
44734;BME280;30462;52.446;-1.930;2023-07-13T01:08:18;99968.28516;;;;
44734;BME280;30462;52.446;-1.930;2023-07-13T01:09:18;99969.05469;;;;
44734;BME280;30462;52.446;-1.930;2023-07-13T01:11:18;99972.82422;;;;
44734;BME280;30462;52.446;-1.930;2023-07-13T01:12:17;99971.43359;;;;
44734;BME280;30462;52.446;-1.930;2023-07-13T01:13:18;99969.10156;;;;
44734;BME280;30462;52.446;-1.930;2023-07-13T01:14:18;99962.32813;;;;
44734;BME280;30462;52.446;-1.930;2023-07-13T01:16:21;99963.10156;;;;
44734;BME280;30462;52.446;-1.930;2023-07-13T01:17:18;99964.09375;;;;
44734;BME280;30462;52.446;-1.930;2023-07-13T01:18:19;99965.41406;;;;
44734;BME280;30462;52.446;-1.930;2023-07-13T01:19:24;99970.16016;;;;
44734;BME280;30462;52.446;-1.930;2023-07-13T01:20:18;99967.82031;;;;
44734;BME280;30462;52.446;-1.930;2023-07-13T01:21:18;99976.1875;;;;
44734;BME280;30462;52.446;-1.930;2023-07-13T01:22:18;99975.9375;;;;
44734;BME280;30462;52.446;-1.930;2023-07-13T01:23:17;99976.23047;;;;
44734;BME280;30462;52.446;-1.930;2023-07-13T01:24:18;99974.84375;;;;
44734;BME280;30462;52.446;-1.930;2023-07-13T01:25:18;99976.28906;;;;
44734;BME280;30462;52.446;-1.930;2023-07-13T01:26:17;99977.64844;;;;
44734;BME280;30462;52.446;-1.930;2023-07-13T01:27:20;99972.85547;;;;
44734;BME280;30462;52.446;-1.930;2023-07-13T01:28:17;99976.22266;;;;
44734;BME280;30462;52.446;-1.930;2023-07-13T01:29:18;99970.47266;;;;
44734;BME280;30462;52.446;-1.930;2023-07-13T01:30:18;99974.63672;;;;
44734;BME280;30462;52.446;-1.930;2023-07-13T01:31:18;99972.27344;;;;
44734;BME280;30462;52.446;-1.930;2023-07-13T01:32:18;99971.58594;;;;
44734;BME280;30462;52.446;-1.930;2023-07-13T01:33:18;99978.08984;;;;
44734;BME280;30462;52.446;-1.930;2023-07-13T01:34:18;99972.00781;;;;
44734;BME280;30462;52.446;-1.930;2023-07-13T01:35:17;99976.49609;;;;
44734;BME280;30462;52.446;-1.930;2023-07-13T01:36:18;99974.60938;;;;
44734;BME280;30462;52.446;-1.930;2023-07-13T01:37:18;99975.26563;;;;
44734;BME280;30462;52.446;-1.930;2023-07-13T01:38:19;99973.61719;;;;
44734;BME280;30462;52.446;-1.930;2023-07-13T01:39:18;99971.54297;;;;
44734;BME280;30462;52.446;-1.930;2023-07-13T01:40:18;99973.34766;;;;
44734;BME280;30462;52.446;-1.930;2023-07-13T01:41:18;99972.78516;;;;
44734;BME280;30462;52.446;-1.930;2023-07-13T01:42:18;99973.91406;;;;
44734;BME280;30462;52.446;-1.930;2023-07-13T01:43:18;99970.71484;;;;
44734;BME280;30462;52.446;-1.930;2023-07-13T01:44:18;99967.08203;;;;
44734;BME280;30462;52.446;-1.930;2023-07-13T01:45:18;99972.16797;;;;
44734;BME280;30462;52.446;-1.930;2023-07-13T01:46:18;99968.20703;;;;
44734;BME280;30462;52.446;-1.930;2023-07-13T01:47:18;99969.6875;;;;
44734;BME280;30462;52.446;-1.930;2023-07-13T01:48:18;99969.19141;;;;
44734;BME280;30462;52.446;-1.930;2023-07-13T01:49:18;99972.95313;;;;
44734;BME280;30462;52.446;-1.930;2023-07-13T01:50:18;99971.92969;;;;
44734;BME280;30462;52.446;-1.930;2023-07-13T01:51:18;99972.53906;;;;
44734;BME280;30462;52.446;-1.930;2023-07-13T01:52:18;99969.22266;;;;
44734;BME280;30462;52.446;-1.930;2023-07-13T01:53:18;99973.68359;;;;
44734;BME280;30462;52.446;-1.930;2023-07-13T01:54:17;99970.58203;;;;
44734;BME280;30462;52.446;-1.930;2023-07-13T01:55:17;99969.11719;;;;
44734;BME280;30462;52.446;-1.930;2023-07-13T01:56:18;99967.58203;;;;
44734;BME280;30462;52.446;-1.930;2023-07-13T01:57:18;99964.85156;;;;
44734;BME280;30462;52.446;-1.930;2023-07-13T01:58:17;99966.58984;;;;
44734;BME280;30462;52.446;-1.930;2023-07-13T01:59:18;99965.03125;;;;
44734;BME280;30462;52.446;-1.930;2023-07-13T02:00:18;99969.54688;;;;
44734;BME280;30462;52.446;-1.930;2023-07-13T02:01:18;99968.75781;;;;
44734;BME280;30462;52.446;-1.930;2023-07-13T02:02:18;99967.51563;;;;
44734;BME280;30462;52.446;-1.930;2023-07-13T02:03:18;99968.79297;;;;
44734;BME280;30462;52.446;-1.930;2023-07-13T02:04:18;99970.96875;;;;
44734;BME280;30462;52.446;-1.930;2023-07-13T02:05:18;99968.69141;;;;
44734;BME280;30462;52.446;-1.930;2023-07-13T02:06:18;99966.46484;;;;
44734;BME280;30462;52.446;-1.930;2023-07-13T02:07:18;99968.02734;;;;
44734;BME280;30462;52.446;-1.930;2023-07-13T02:08:18;99964.26563;;;;
44734;BME280;30462;52.446;-1.930;2023-07-13T02:09:18;99963.48047;;;;
44734;BME280;30462;52.446;-1.930;2023-07-13T02:10:18;99966.52344;;;;
44734;BME280;30462;52.446;-1.930;2023-07-13T02:11:18;99968.97656;;;;
44734;BME280;30462;52.446;-1.930;2023-07-13T02:12:18;99962.24219;;;;
44734;BME280;30462;52.446;-1.930;2023-07-13T02:13:17;99960.97266;;;;
44734;BME280;30462;52.446;-1.930;2023-07-13T02:14:17;99961.89453;;;;
44734;BME280;30462;52.446;-1.930;2023-07-13T02:15:18;99963.22266;;;;
44734;BME280;30462;52.446;-1.930;2023-07-13T02:16:18;99963.78516;;;;
44734;BME280;30462;52.446;-1.930;2023-07-13T02:17:18;99963.51172;;;;
44734;BME280;30462;52.446;-1.930;2023-07-13T02:18:17;99962.76563;;;;
44734;BME280;30462;52.446;-1.930;2023-07-13T02:19:18;99965.82422;;;;
44734;BME280;30462;52.446;-1.930;2023-07-13T02:20:18;99964.60547;;;;
44734;BME280;30462;52.446;-1.930;2023-07-13T02:21:18;99963.34375;;;;
44734;BME280;30462;52.446;-1.930;2023-07-13T02:22:18;99961.90234;;;;
44734;BME280;30462;52.446;-1.930;2023-07-13T02:23:18;99959.71094;;;;
44734;BME280;30462;52.446;-1.930;2023-07-13T02:24:17;99960.46875;;;;
44734;BME280;30462;52.446;-1.930;2023-07-13T02:25:18;99961.53516;;;;
44734;BME280;30462;52.446;-1.930;2023-07-13T02:26:18;99960.91016;;;;
44734;BME280;30462;52.446;-1.930;2023-07-13T02:27:18;99955.57422;;;;
44734;BME280;30462;52.446;-1.930;2023-07-13T02:28:17;99962.56641;;;;
44734;BME280;30462;52.446;-1.930;2023-07-13T02:29:18;99963.96484;;;;
44734;BME280;30462;52.446;-1.930;2023-07-13T02:30:18;99962.44141;;;;
44734;BME280;30462;52.446;-1.930;2023-07-13T02:31:18;99961.27734;;;;
44734;BME280;30462;52.446;-1.930;2023-07-13T02:32:18;99959.57031;;;;
44734;BME280;30462;52.446;-1.930;2023-07-13T02:33:18;99958.15234;;;;
44734;BME280;30462;52.446;-1.930;2023-07-13T02:34:18;99957.01563;;;;
44734;BME280;30462;52.446;-1.930;2023-07-13T02:35:18;99959.92578;;;;
44734;BME280;30462;52.446;-1.930;2023-07-13T02:36:17;99957.69922;;;;
44734;BME280;30462;52.446;-1.930;2023-07-13T02:37:18;99960.64063;;;;
44734;BME280;30462;52.446;-1.930;2023-07-13T02:38:18;99959.33984;;;;
44734;BME280;30462;52.446;-1.930;2023-07-13T02:39:18;99958.65625;;;;
44734;BME280;30462;52.446;-1.930;2023-07-13T02:40:18;99956.25391;;;;
44734;BME280;30462;52.446;-1.930;2023-07-13T02:41:18;99960.34766;;;;
44734;BME280;30462;52.446;-1.930;2023-07-13T02:42:18;99956.51953;;;;
44734;BME280;30462;52.446;-1.930;2023-07-13T02:43:18;99957.875;;;;
44734;BME280;30462;52.446;-1.930;2023-07-13T02:44:18;99956.19922;;;;
44734;BME280;30462;52.446;-1.930;2023-07-13T02:45:17;99955.60547;;;;
44734;BME280;30462;52.446;-1.930;2023-07-13T02:46:18;99954.73438;;;;
44734;BME280;30462;52.446;-1.930;2023-07-13T02:47:18;99956.23438;;;;
44734;BME280;30462;52.446;-1.930;2023-07-13T02:48:18;99953.87109;;;;
44734;BME280;30462;52.446;-1.930;2023-07-13T02:49:18;99956.11328;;;;
44734;BME280;30462;52.446;-1.930;2023-07-13T02:50:18;99953.24609;;;;
44734;BME280;30462;52.446;-1.930;2023-07-13T02:51:19;99952.21094;;;;
44734;BME280;30462;52.446;-1.930;2023-07-13T02:52:17;99953.23047;;;;
44734;BME280;30462;52.446;-1.930;2023-07-13T02:53:17;99952.88672;;;;
44734;BME280;30462;52.446;-1.930;2023-07-13T02:54:18;99954.07031;;;;
44734;BME280;30462;52.446;-1.930;2023-07-13T02:55:18;99954.05859;;;;
44734;BME280;30462;52.446;-1.930;2023-07-13T02:56:18;99954.5625;;;;
44734;BME280;30462;52.446;-1.930;2023-07-13T02:57:18;99954.70313;;;;
44734;BME280;30462;52.446;-1.930;2023-07-13T02:58:18;99954.34375;;;;
44734;BME280;30462;52.446;-1.930;2023-07-13T02:59:18;99954.01172;;;;
44734;BME280;30462;52.446;-1.930;2023-07-13T03:00:17;99954.58203;;;;
44734;BME280;30462;52.446;-1.930;2023-07-13T03:01:17;99954.09766;;;;
44734;BME280;30462;52.446;-1.930;2023-07-13T03:02:18;99955.95703;;;;
44734;BME280;30462;52.446;-1.930;2023-07-13T03:03:18;99951.58203;;;;
44734;BME280;30462;52.446;-1.930;2023-07-13T03:04:18;99951.09766;;;;
44734;BME280;30462;52.446;-1.930;2023-07-13T03:05:18;99951.92969;;;;
44734;BME280;30462;52.446;-1.930;2023-07-13T03:06:18;99949.97266;;;;
44734;BME280;30462;52.446;-1.930;2023-07-13T03:07:18;99951.15234;;;;
44734;BME280;30462;52.446;-1.930;2023-07-13T03:08:17;99951.19531;;;;
44734;BME280;30462;52.446;-1.930;2023-07-13T03:09:18;99949.29688;;;;
44734;BME280;30462;52.446;-1.930;2023-07-13T03:10:18;99952.54688;;;;
44734;BME280;30462;52.446;-1.930;2023-07-13T03:11:18;99950.98828;;;;
44734;BME280;30462;52.446;-1.930;2023-07-13T03:12:18;99955.08594;;;;
44734;BME280;30462;52.446;-1.930;2023-07-13T03:13:18;99951.30469;;;;
44734;BME280;30462;52.446;-1.930;2023-07-13T03:14:18;99953.26953;;;;
44734;BME280;30462;52.446;-1.930;2023-07-13T03:15:17;99953.03125;;;;
44734;BME280;30462;52.446;-1.930;2023-07-13T03:16:18;99950.96484;;;;
44734;BME280;30462;52.446;-1.930;2023-07-13T03:17:18;99946.85156;;;;
44734;BME280;30462;52.446;-1.930;2023-07-13T03:18:18;99946.10938;;;;
44734;BME280;30462;52.446;-1.930;2023-07-13T03:19:18;99944.80859;;;;
44734;BME280;30462;52.446;-1.930;2023-07-13T03:20:18;99944.25;;;;
44734;BME280;30462;52.446;-1.930;2023-07-13T03:21:18;99944.53125;;;;
44734;BME280;30462;52.446;-1.930;2023-07-13T03:22:18;99947.10156;;;;
44734;BME280;30462;52.446;-1.930;2023-07-13T03:23:17;99945.63672;;;;
44734;BME280;30462;52.446;-1.930;2023-07-13T03:24:18;99945.41016;;;;
44734;BME280;30462;52.446;-1.930;2023-07-13T03:25:18;99947.59766;;;;
44734;BME280;30462;52.446;-1.930;2023-07-13T03:26:19;99952.23828;;;;
44734;BME280;30462;52.446;-1.930;2023-07-13T03:27:18;99954.39063;;;;
44734;BME280;30462;52.446;-1.930;2023-07-13T03:28:18;99955.23828;;;;
44734;BME280;30462;52.446;-1.930;2023-07-13T03:29:18;99955.62891;;;;
44734;BME280;30462;52.446;-1.930;2023-07-13T03:30:18;99952.85547;;;;
44734;BME280;30462;52.446;-1.930;2023-07-13T03:31:18;99955.27734;;;;
44734;BME280;30462;52.446;-1.930;2023-07-13T03:32:17;99955.03516;;;;
44734;BME280;30462;52.446;-1.930;2023-07-13T03:33:18;99956.57031;;;;
44734;BME280;30462;52.446;-1.930;2023-07-13T03:34:18;99959.04688;;;;
44734;BME280;30462;52.446;-1.930;2023-07-13T03:35:18;99957.99609;;;;
44734;BME280;30462;52.446;-1.930;2023-07-13T03:36:18;99957.55859;;;;
44734;BME280;30462;52.446;-1.930;2023-07-13T03:37:18;99956.71875;;;;
44734;BME280;30462;52.446;-1.930;2023-07-13T03:38:17;99952.05859;;;;
44734;BME280;30462;52.446;-1.930;2023-07-13T03:39:17;99958.85156;;;;
44734;BME280;30462;52.446;-1.930;2023-07-13T03:40:18;99957.45313;;;;
44734;BME280;30462;52.446;-1.930;2023-07-13T03:41:17;99955.18359;;;;
44734;BME280;30462;52.446;-1.930;2023-07-13T03:42:18;99958.96484;;;;
44734;BME280;30462;52.446;-1.930;2023-07-13T03:43:18;99962.72266;;;;
44734;BME280;30462;52.446;-1.930;2023-07-13T03:44:18;99960.49609;;;;
44734;BME280;30462;52.446;-1.930;2023-07-13T03:45:18;99961.17969;;;;
44734;BME280;30462;52.446;-1.930;2023-07-13T03:46:18;99962.15625;;;;
44734;BME280;30462;52.446;-1.930;2023-07-13T03:47:18;99964.01953;;;;
44734;BME280;30462;52.446;-1.930;2023-07-13T03:48:18;99966.82031;;;;
44734;BME280;30462;52.446;-1.930;2023-07-13T03:49:18;99967.17578;;;;
44734;BME280;30462;52.446;-1.930;2023-07-13T03:50:18;99966.93359;;;;
44734;BME280;30462;52.446;-1.930;2023-07-13T03:51:18;99965.87891;;;;
44734;BME280;30462;52.446;-1.930;2023-07-13T03:52:18;99964.04688;;;;
44734;BME280;30462;52.446;-1.930;2023-07-13T03:53:18;99965.17969;;;;
44734;BME280;30462;52.446;-1.930;2023-07-13T03:54:18;99965.41406;;;;
44734;BME280;30462;52.446;-1.930;2023-07-13T03:55:18;99969.21875;;;;
44734;BME280;30462;52.446;-1.930;2023-07-13T03:56:18;99966.79688;;;;
44734;BME280;30462;52.446;-1.930;2023-07-13T03:57:18;99966.07813;;;;
44734;BME280;30462;52.446;-1.930;2023-07-13T03:59:17;99971.03516;;;;
44734;BME280;30462;52.446;-1.930;2023-07-13T04:00:18;99973.23438;;;;
44734;BME280;30462;52.446;-1.930;2023-07-13T04:01:18;99971.65234;;;;
44734;BME280;30462;52.446;-1.930;2023-07-13T04:02:18;99969.97266;;;;
44734;BME280;30462;52.446;-1.930;2023-07-13T04:03:18;99971.14453;;;;
44734;BME280;30462;52.446;-1.930;2023-07-13T04:04:18;99969.04297;;;;
44734;BME280;30462;52.446;-1.930;2023-07-13T04:05:18;99967.97266;;;;
44734;BME280;30462;52.446;-1.930;2023-07-13T04:06:20;99970.30859;;;;
44734;BME280;30462;52.446;-1.930;2023-07-13T04:07:18;99971.34375;;;;
44734;BME280;30462;52.446;-1.930;2023-07-13T04:08:18;99972.45313;;;;
44734;BME280;30462;52.446;-1.930;2023-07-13T04:09:17;99973.55469;;;;
44734;BME280;30462;52.446;-1.930;2023-07-13T04:10:18;99974.13281;;;;
44734;BME280;30462;52.446;-1.930;2023-07-13T04:11:18;99975.05078;;;;
44734;BME280;30462;52.446;-1.930;2023-07-13T04:12:17;99973.44531;;;;
44734;BME280;30462;52.446;-1.930;2023-07-13T04:13:18;99974.73828;;;;
44734;BME280;30462;52.446;-1.930;2023-07-13T04:14:18;99974.96484;;;;
44734;BME280;30462;52.446;-1.930;2023-07-13T04:15:18;99972.625;;;;
44734;BME280;30462;52.446;-1.930;2023-07-13T04:16:18;99979.48828;;;;
44734;BME280;30462;52.446;-1.930;2023-07-13T04:17:18;99978.70703;;;;
44734;BME280;30462;52.446;-1.930;2023-07-13T04:18:18;99978.14063;;;;
44734;BME280;30462;52.446;-1.930;2023-07-13T04:19:18;99979.99609;;;;
44734;BME280;30462;52.446;-1.930;2023-07-13T04:20:18;99983.89844;;;;
44734;BME280;30462;52.446;-1.930;2023-07-13T04:21:18;99983.20313;;;;
44734;BME280;30462;52.446;-1.930;2023-07-13T04:22:17;99982.88281;;;;
44734;BME280;30462;52.446;-1.930;2023-07-13T04:23:18;99984.02734;;;;
44734;BME280;30462;52.446;-1.930;2023-07-13T04:24:18;99987.67969;;;;
44734;BME280;30462;52.446;-1.930;2023-07-13T04:25:18;99987.16797;;;;
44734;BME280;30462;52.446;-1.930;2023-07-13T04:26:18;99989.30469;;;;
44734;BME280;30462;52.446;-1.930;2023-07-13T04:27:18;99983.30469;;;;
44734;BME280;30462;52.446;-1.930;2023-07-13T04:28:18;99985.20703;;;;
44734;BME280;30462;52.446;-1.930;2023-07-13T04:29:18;99983.29688;;;;
44734;BME280;30462;52.446;-1.930;2023-07-13T04:30:17;99984.35938;;;;
44734;BME280;30462;52.446;-1.930;2023-07-13T04:31:17;99984.78906;;;;
44734;BME280;30462;52.446;-1.930;2023-07-13T04:32:18;99983.85547;;;;
44734;BME280;30462;52.446;-1.930;2023-07-13T04:33:18;99988.61328;;;;
44734;BME280;30462;52.446;-1.930;2023-07-13T04:34:18;99984.13281;;;;
44734;BME280;30462;52.446;-1.930;2023-07-13T04:35:18;99986.64453;;;;
44734;BME280;30462;52.446;-1.930;2023-07-13T04:36:18;99987.17578;;;;
44734;BME280;30462;52.446;-1.930;2023-07-13T04:37:18;99986.47656;;;;
44734;BME280;30462;52.446;-1.930;2023-07-13T04:38:18;99986.76172;;;;
44734;BME280;30462;52.446;-1.930;2023-07-13T04:39:18;99987.84766;;;;
44734;BME280;30462;52.446;-1.930;2023-07-13T04:40:18;99987.19922;;;;
44734;BME280;30462;52.446;-1.930;2023-07-13T04:41:18;99988.625;;;;
44734;BME280;30462;52.446;-1.930;2023-07-13T04:42:18;99989.20703;;;;
44734;BME280;30462;52.446;-1.930;2023-07-13T04:43:18;99991.78906;;;;
44734;BME280;30462;52.446;-1.930;2023-07-13T04:44:17;99990.56641;;;;
44734;BME280;30462;52.446;-1.930;2023-07-13T04:45:18;99988.65234;;;;
44734;BME280;30462;52.446;-1.930;2023-07-13T04:46:18;99987.83984;;;;
44734;BME280;30462;52.446;-1.930;2023-07-13T04:47:18;99992.46484;;;;
44734;BME280;30462;52.446;-1.930;2023-07-13T04:48:18;99990.74219;;;;
44734;BME280;30462;52.446;-1.930;2023-07-13T04:49:18;99991.49609;;;;
44734;BME280;30462;52.446;-1.930;2023-07-13T04:50:18;99994.47266;;;;
44734;BME280;30462;52.446;-1.930;2023-07-13T04:51:18;99993.63281;;;;
44734;BME280;30462;52.446;-1.930;2023-07-13T04:52:18;99992.32422;;;;
44734;BME280;30462;52.446;-1.930;2023-07-13T04:53:18;99995.66016;;;;
44734;BME280;30462;52.446;-1.930;2023-07-13T04:54:18;99995.16406;;;;
44734;BME280;30462;52.446;-1.930;2023-07-13T04:55:18;99994.48438;;;;
44734;BME280;30462;52.446;-1.930;2023-07-13T04:56:18;99993.24219;;;;
44734;BME280;30462;52.446;-1.930;2023-07-13T04:57:18;99995.45703;;;;
44734;BME280;30462;52.446;-1.930;2023-07-13T04:58:18;99994.59375;;;;
44734;BME280;30462;52.446;-1.930;2023-07-13T04:59:18;99998.10156;;;;
44734;BME280;30462;52.446;-1.930;2023-07-13T05:00:18;99994.35938;;;;
44734;BME280;30462;52.446;-1.930;2023-07-13T05:01:18;100000.2305;;;;
44734;BME280;30462;52.446;-1.930;2023-07-13T05:02:18;100002.3438;;;;
44734;BME280;30462;52.446;-1.930;2023-07-13T05:03:17;100002.6563;;;;
44734;BME280;30462;52.446;-1.930;2023-07-13T05:04:18;100003.4336;;;;
44734;BME280;30462;52.446;-1.930;2023-07-13T05:05:18;100001.7188;;;;
44734;BME280;30462;52.446;-1.930;2023-07-13T05:06:18;100001.7773;;;;
44734;BME280;30462;52.446;-1.930;2023-07-13T05:07:18;100003.2539;;;;
44734;BME280;30462;52.446;-1.930;2023-07-13T05:08:17;100006.9023;;;;
44734;BME280;30462;52.446;-1.930;2023-07-13T05:09:18;100006.9023;;;;
44734;BME280;30462;52.446;-1.930;2023-07-13T05:10:18;100006.7227;;;;
44734;BME280;30462;52.446;-1.930;2023-07-13T05:11:18;100006.3125;;;;
44734;BME280;30462;52.446;-1.930;2023-07-13T05:12:18;100007.7852;;;;
44734;BME280;30462;52.446;-1.930;2023-07-13T05:13:18;100006.3086;;;;
44734;BME280;30462;52.446;-1.930;2023-07-13T05:14:18;100009.4258;;;;
44734;BME280;30462;52.446;-1.930;2023-07-13T05:15:20;100009.2617;;;;
44734;BME280;30462;52.446;-1.930;2023-07-13T05:16:18;100007.0547;;;;
44734;BME280;30462;52.446;-1.930;2023-07-13T05:17:17;100010.2148;;;;
44734;BME280;30462;52.446;-1.930;2023-07-13T05:18:17;100008.7461;;;;
44734;BME280;30462;52.446;-1.930;2023-07-13T05:19:18;100010.6758;;;;
44734;BME280;30462;52.446;-1.930;2023-07-13T05:20:18;100016.0977;;;;
44734;BME280;30462;52.446;-1.930;2023-07-13T05:21:17;100016.2852;;;;
44734;BME280;30462;52.446;-1.930;2023-07-13T05:22:18;100020.1719;;;;
44734;BME280;30462;52.446;-1.930;2023-07-13T05:23:18;100020.875;;;;
44734;BME280;30462;52.446;-1.930;2023-07-13T05:24:18;100020.2891;;;;
44734;BME280;30462;52.446;-1.930;2023-07-13T05:25:18;100019.6133;;;;
44734;BME280;30462;52.446;-1.930;2023-07-13T05:26:18;100017.457;;;;
44734;BME280;30462;52.446;-1.930;2023-07-13T05:27:18;100016.7461;;;;
44734;BME280;30462;52.446;-1.930;2023-07-13T05:28:17;100017.4727;;;;
44734;BME280;30462;52.446;-1.930;2023-07-13T05:29:18;100020.4727;;;;
44734;BME280;30462;52.446;-1.930;2023-07-13T05:30:18;100018.3594;;;;
44734;BME280;30462;52.446;-1.930;2023-07-13T05:31:18;100020.2344;;;;
44734;BME280;30462;52.446;-1.930;2023-07-13T05:32:18;100017.8984;;;;
44734;BME280;30462;52.446;-1.930;2023-07-13T05:33:18;100020.5273;;;;
44734;BME280;30462;52.446;-1.930;2023-07-13T05:34:18;100021.7344;;;;
44734;BME280;30462;52.446;-1.930;2023-07-13T05:35:17;100023.3516;;;;
44734;BME280;30462;52.446;-1.930;2023-07-13T05:36:18;100025.9961;;;;
44734;BME280;30462;52.446;-1.930;2023-07-13T05:37:17;100027.2813;;;;
44734;BME280;30462;52.446;-1.930;2023-07-13T05:38:18;100029.0586;;;;
44734;BME280;30462;52.446;-1.930;2023-07-13T05:39:18;100029.7148;;;;
44734;BME280;30462;52.446;-1.930;2023-07-13T05:40:18;100034.5234;;;;
44734;BME280;30462;52.446;-1.930;2023-07-13T05:41:18;100035.0391;;;;
44734;BME280;30462;52.446;-1.930;2023-07-13T05:42:18;100036.8867;;;;
44734;BME280;30462;52.446;-1.930;2023-07-13T05:43:18;100040.9883;;;;
44734;BME280;30462;52.446;-1.930;2023-07-13T05:44:17;100039.5273;;;;
44734;BME280;30462;52.446;-1.930;2023-07-13T05:45:18;100045.2539;;;;
44734;BME280;30462;52.446;-1.930;2023-07-13T05:46:18;100043.707;;;;
44734;BME280;30462;52.446;-1.930;2023-07-13T05:47:18;100044.3398;;;;
44734;BME280;30462;52.446;-1.930;2023-07-13T05:48:18;100048.7852;;;;
44734;BME280;30462;52.446;-1.930;2023-07-13T05:49:17;100045.7773;;;;
44734;BME280;30462;52.446;-1.930;2023-07-13T05:50:19;100044.1563;;;;